Hidden Timber, South Dakota
Current Conditions -  °F | °C
As of 7:52 PM on Saturday 22 Nov 2014 (Local Time) from KVTN Reporting Station
Overcast Overcast  
Wind Chill: 42°   Ceiling: 11000
Heat Index: 45°   Visibility: 10mi
Dew Point: 30°   Wind: 6mph
Humidity: 56%   Direction: 260°W
Pressure: 29.46"   Gusts: NA
Location:  43.1909°N, 100.475°W
Report Text: KVTN 230152Z AUTO 26005KT 10SM OVC110 07/M01 A2946 RMK AO2 SLP993 T00721011
Loading
Personal Weather Stations






























Interactive Weather Map New forecast layout! Learn more

10-Day Weather Forecast

Advertisements
Track Severe Weather on mobile